Time;durP1;ratioP1;P1;durP2;ratioP2;P2;SDS_P1;SDS_P2;PMS_P1;PMS_P2;Temp;Humidity;BMP_temperature;BMP_pressure;BME280_temperature;BME280_humidity;BME280_pressure;Samples;Min_cycle;Max_cycle;Signal;HPM_P1;HPM_P2
2022/05/15 00:01:23;;;;;;;12.82;4.32;;;;;;;8.46;100.00;101113.53;5043951;28;20104;-79
2022/05/15 00:03:49;;;;;;;8.98;4.10;;;;;;;8.38;100.00;101102.72;5031075;28;20124;-80
2022/05/15 00:06:15;;;;;;;8.85;4.20;;;;;;;8.32;100.00;101089.94;5039499;28;20028;-79
2022/05/15 00:08:40;;;;;;;10.30;4.28;;;;;;;8.34;100.00;101112.91;5007142;28;20028;-78
2022/05/15 00:11:08;;;;;;;13.65;4.32;;;;;;;8.20;100.00;101105.38;5047297;28;20625;-78
2022/05/15 00:13:35;;;;;;;10.40;4.18;;;;;;;8.11;100.00;101107.13;5045978;28;20069;-82
2022/05/15 00:16:01;;;;;;;8.32;3.50;;;;;;;8.06;100.00;101111.25;5030963;28;20082;-79
2022/05/15 00:18:26;;;;;;;8.57;3.92;;;;;;;7.94;100.00;101094.59;5012072;28;20041;-82
2022/05/15 00:20:52;;;;;;;10.07;4.82;;;;;;;7.86;100.00;101102.53;5023467;28;20459;-80
2022/05/15 00:23:23;;;;;;;12.45;4.72;;;;;;;7.85;100.00;101090.94;5039469;28;20076;-78
2022/05/15 00:25:48;;;;;;;12.43;4.40;;;;;;;7.67;100.00;101082.91;5028119;28;20040;-78
2022/05/15 00:28:14;;;;;;;14.05;4.55;;;;;;;7.56;100.00;101080.41;5040615;28;20401;-80
2022/05/15 00:30:41;;;;;;;13.18;4.85;;;;;;;7.46;100.00;101084.94;5033466;28;20116;-80
2022/05/15 00:33:06;;;;;;;10.32;4.38;;;;;;;7.31;100.00;101073.91;5020204;28;20137;-79
2022/05/15 00:35:35;;;;;;;8.30;4.70;;;;;;;7.22;100.00;101072.09;5043448;28;20541;-81
2022/05/15 00:38:06;;;;;;;11.27;4.18;;;;;;;7.13;100.00;101063.13;5057658;28;20060;-78
2022/05/15 00:40:33;;;;;;;11.93;4.63;;;;;;;7.07;100.00;101050.34;5075903;28;20045;-78
2022/05/15 00:42:59;;;;;;;17.52;5.22;;;;;;;7.15;100.00;101054.97;5073613;28;20021;-77
2022/05/15 00:45:27;;;;;;;11.35;4.47;;;;;;;7.12;100.00;101060.56;5068728;28;20465;-77
2022/05/15 00:47:56;;;;;;;10.32;4.68;;;;;;;7.14;100.00;101050.59;5070291;28;20061;-79
2022/05/15 00:50:28;;;;;;;15.25;5.60;;;;;;;7.08;100.00;101032.47;5065500;28;20040;-78
2022/05/15 00:52:58;;;;;;;12.95;5.10;;;;;;;7.01;100.00;101048.22;5028139;28;20422;-79
2022/05/15 00:55:43;;;;;;;12.35;4.93;;;;;;;6.94;100.00;101037.28;5046530;28;20057;-80
2022/05/15 00:58:18;;;;;;;14.35;5.47;;;;;;;6.94;100.00;101028.44;5044173;28;20064;-79
2022/05/15 01:00:43;;;;;;;12.32;5.50;;;;;;;6.83;100.00;101024.94;5047383;28;20035;-79
2022/05/15 01:03:14;;;;;;;12.40;4.65;;;;;;;6.69;100.00;101019.19;5048225;28;20036;-80
2022/05/15 01:05:46;;;;;;;10.25;4.68;;;;;;;6.63;100.00;101012.59;5046148;28;20060;-78
2022/05/15 01:08:13;;;;;;;12.57;5.30;;;;;;;6.59;100.00;101012.06;5016447;28;20478;-79
2022/05/15 01:10:41;;;;;;;12.52;4.70;;;;;;;6.64;100.00;101010.78;5033159;28;20036;-80
2022/05/15 01:13:08;;;;;;;12.43;5.30;;;;;;;6.58;100.00;101007.69;5008874;28;20088;-78
2022/05/15 01:15:36;;;;;;;12.88;5.03;;;;;;;6.67;100.00;101018.50;5044203;28;20763;-78
2022/05/15 01:18:02;;;;;;;13.30;4.95;;;;;;;6.60;100.00;101016.41;5042953;28;20390;-78
2022/05/15 01:20:30;;;;;;;12.32;5.00;;;;;;;6.58;100.00;101017.53;5049784;28;20028;-77
2022/05/15 01:22:56;;;;;;;15.70;5.03;;;;;;;6.44;100.00;100992.13;5054542;28;20050;-79
2022/05/15 01:25:28;;;;;;;11.77;5.40;;;;;;;6.62;100.00;101024.28;5028168;28;20500;-79
2022/05/15 01:28:06;;;;;;;16.10;4.82;;;;;;;6.65;100.00;101020.50;5038889;28;20079;-79
2022/05/15 01:30:34;;;;;;;13.32;5.22;;;;;;;6.57;100.00;101008.69;5055594;28;20025;-77
2022/05/15 01:33:00;;;;;;;12.88;5.20;;;;;;;6.67;100.00;101013.16;5035137;28;20033;-78
2022/05/15 01:35:26;;;;;;;16.67;5.30;;;;;;;6.60;100.00;101011.06;5047884;28;20045;-79
2022/05/15 01:37:52;;;;;;;11.18;5.68;;;;;;;6.48;100.00;101000.69;5012084;28;20059;-78
2022/05/15 01:40:18;;;;;;;14.38;4.82;;;;;;;6.39;100.00;100997.03;5045090;28;20425;-80
2022/05/15 01:42:44;;;;;;;12.25;4.60;;;;;;;6.29;100.00;100989.03;5028410;28;20078;-79
2022/05/15 01:45:10;;;;;;;11.57;4.05;;;;;;;6.36;100.00;100986.66;5041160;28;20052;-78
2022/05/15 01:47:36;;;;;;;8.45;5.38;;;;;;;6.41;100.00;100995.09;5045029;28;20496;-80
2022/05/15 01:50:03;;;;;;;12.88;4.90;;;;;;;6.34;100.00;100988.63;5029103;28;20029;-80
2022/05/15 01:52:28;;;;;;;12.02;4.97;;;;;;;6.24;100.00;100988.63;5044476;28;20472;-79
2022/05/15 01:54:54;;;;;;;14.27;4.97;;;;;;;6.10;100.00;100979.22;5049295;28;20467;-80
2022/05/15 01:57:21;;;;;;;13.10;5.20;;;;;;;5.94;100.00;100968.28;5008386;28;20781;-81
2022/05/15 01:59:47;;;;;;;16.50;5.70;;;;;;;5.93;100.00;100977.25;5045162;28;20029;-81
2022/05/15 02:02:13;;;;;;;14.32;4.75;;;;;;;5.97;100.00;100986.66;5042207;28;20048;-82
2022/05/15 02:04:38;;;;;;;11.25;5.32;;;;;;;5.98;100.00;100980.38;5010451;28;20032;-81
2022/05/15 02:07:04;;;;;;;18.95;6.07;;;;;;;5.96;100.00;100985.00;5024517;28;20035;-80
2022/05/15 02:09:30;;;;;;;12.15;6.03;;;;;;;5.86;100.00;100976.09;5046374;28;20459;-80
2022/05/15 02:11:56;;;;;;;16.40;6.00;;;;;;;5.78;100.00;100973.28;5042221;28;20044;-79
2022/05/15 02:14:21;;;;;;;16.08;6.43;;;;;;;5.76;100.00;100975.25;5052492;28;20087;-79
2022/05/15 02:16:47;;;;;;;16.48;6.28;;;;;;;5.76;100.00;100976.09;5008487;28;20041;-80
2022/05/15 02:19:13;;;;;;;13.95;5.53;;;;;;;5.73;100.00;100974.53;5030099;28;20094;-80
2022/05/15 02:21:38;;;;;;;18.10;6.70;;;;;;;5.75;100.00;100973.59;5045605;28;20105;-79
2022/05/15 02:24:04;;;;;;;14.00;5.63;;;;;;;5.77;100.00;100969.78;5008911;28;20029;-78
2022/05/15 02:26:35;;;;;;;16.63;6.78;;;;;;;5.75;100.00;100974.41;5024076;28;20506;-82
2022/05/15 02:29:00;;;;;;;15.57;5.28;;;;;;;5.73;100.00;100963.88;5043005;28;20455;-78
2022/05/15 02:31:26;;;;;;;17.05;5.50;;;;;;;5.70;100.00;100966.81;5032531;28;20565;-79
2022/05/15 02:33:52;;;;;;;15.82;6.10;;;;;;;5.64;100.00;100961.22;5041097;28;20712;-81
2022/05/15 02:36:17;;;;;;;20.63;5.72;;;;;;;5.66;100.00;100965.44;5013154;28;20025;-79
2022/05/15 02:38:43;;;;;;;13.50;6.00;;;;;;;5.63;100.00;100959.50;5027574;28;20033;-80
2022/05/15 02:41:08;;;;;;;11.85;5.78;;;;;;;5.62;100.00;100957.84;5052662;28;20036;-81
2022/05/15 02:43:34;;;;;;;12.57;5.70;;;;;;;5.58;100.00;100946.59;5042393;28;20025;-79
2022/05/15 02:46:02;;;;;;;14.52;6.00;;;;;;;5.64;100.00;100958.56;5032079;28;20043;-82
2022/05/15 02:51:13;;;;;;;19.48;5.95;;;;;;;5.63;100.00;100967.50;5027677;28;20082;-80
2022/05/15 02:53:41;;;;;;;20.90;7.57;;;;;;;5.71;100.00;100965.00;5049394;28;20039;-78
2022/05/15 02:56:30;;;;;;;20.67;6.53;;;;;;;5.60;100.00;100952.63;5020950;28;20028;-78
2022/05/15 02:58:55;;;;;;;17.17;6.43;;;;;;;5.65;100.00;100954.88;5038142;28;20052;-77
2022/05/15 03:01:21;;;;;;;16.63;6.07;;;;;;;5.85;100.00;100955.75;5041343;28;20052;-81
2022/05/15 03:03:47;;;;;;;21.48;6.93;;;;;;;5.96;100.00;100947.63;5022634;28;20534;-80
2022/05/15 03:06:13;;;;;;;20.40;6.35;;;;;;;5.98;100.00;100943.00;5051131;28;20037;-80
2022/05/15 03:08:41;;;;;;;16.63;6.00;;;;;;;5.90;100.00;100943.66;5049835;28;20028;-79
2022/05/15 03:11:08;;;;;;;17.45;7.30;;;;;;;5.73;100.00;100923.84;5025662;28;20107;-83
2022/05/15 03:13:35;;;;;;;20.65;6.97;;;;;;;5.80;100.00;100937.50;5039013;28;20024;-79
2022/05/15 03:16:04;;;;;;;17.42;6.78;;;;;;;5.86;100.00;100946.75;5031433;28;20120;-78
2022/05/15 03:18:30;;;;;;;18.58;6.80;;;;;;;5.81;100.00;100946.34;5007708;28;20113;-79
2022/05/15 03:20:55;;;;;;;22.58;7.00;;;;;;;5.79;100.00;100927.78;5029185;28;20444;-81
2022/05/15 03:23:21;;;;;;;14.00;5.25;;;;;;;5.92;100.00;100927.50;5022809;28;20037;-83
2022/05/15 03:25:47;;;;;;;26.05;7.10;;;;;;;6.07;100.00;100934.13;5040485;28;20032;-78
2022/05/15 03:28:17;;;;;;;23.30;6.53;;;;;;;6.20;100.00;100927.66;5053453;28;20025;-79
2022/05/15 03:30:44;;;;;;;15.88;6.53;;;;;;;6.09;100.00;100916.16;5011331;28;20474;-80
2022/05/15 03:33:10;;;;;;;21.05;7.68;;;;;;;6.10;100.00;100935.66;5040981;28;20390;-79
2022/05/15 03:35:37;;;;;;;26.05;7.93;;;;;;;6.04;100.00;100930.91;5006382;28;20098;-78
2022/05/15 03:38:03;;;;;;;19.92;6.85;;;;;;;5.91;100.00;100912.47;5046513;28;20040;-81
2022/05/15 03:40:29;;;;;;;30.75;10.77;;;;;;;5.96;100.00;100926.28;5042487;28;20057;-79
2022/05/15 03:42:56;;;;;;;20.92;7.18;;;;;;;5.84;100.00;100919.34;5035494;28;20111;-78
2022/05/15 03:45:24;;;;;;;23.85;7.70;;;;;;;5.80;100.00;100926.81;5039160;28;20044;-78
2022/05/15 03:47:54;;;;;;;24.15;8.82;;;;;;;5.53;100.00;100905.31;5036784;28;20466;-79
2022/05/15 03:50:23;;;;;;;24.00;8.85;;;;;;;5.54;100.00;100923.84;5040249;28;20025;-81
2022/05/15 03:52:48;;;;;;;27.70;9.50;;;;;;;5.47;100.00;100936.03;5049264;28;20123;-79
2022/05/15 03:55:14;;;;;;;27.58;8.10;;;;;;;5.33;100.00;100926.63;5030341;28;20124;-80
2022/05/15 03:57:41;;;;;;;29.05;9.05;;;;;;;5.29;100.00;100933.19;5038188;28;20047;-81
2022/05/15 04:00:10;;;;;;;27.70;8.82;;;;;;;5.24;100.00;100922.97;5012754;28;20041;-78
2022/05/15 04:02:38;;;;;;;21.95;7.93;;;;;;;5.20;100.00;100908.22;5047027;28;20068;-79
2022/05/15 04:05:05;;;;;;;26.05;8.93;;;;;;;5.44;100.00;100923.00;5049304;28;20028;-79
2022/05/15 04:07:31;;;;;;;20.25;6.70;;;;;;;5.65;100.00;100931.72;5042947;28;20083;-79
2022/05/15 04:09:56;;;;;;;27.50;8.27;;;;;;;5.82;100.00;100926.66;5049252;28;20056;-81
2022/05/15 04:12:22;;;;;;;18.42;6.97;;;;;;;5.84;100.00;100914.84;5046443;28;20402;-81
2022/05/15 04:14:48;;;;;;;26.10;8.15;;;;;;;5.89;100.00;100907.28;5046011;28;20541;-78
2022/05/15 04:17:13;;;;;;;23.70;8.20;;;;;;;5.85;100.00;100923.72;5027992;28;20037;-79
2022/05/15 04:19:39;;;;;;;24.95;8.88;;;;;;;5.79;100.00;100918.94;5047807;28;20025;-78
2022/05/15 04:22:05;;;;;;;30.77;8.90;;;;;;;5.86;100.00;100928.06;5024783;28;20434;-78
2022/05/15 04:24:32;;;;;;;33.50;8.60;;;;;;;5.89;100.00;100922.44;5052216;28;20127;-79
2022/05/15 04:26:58;;;;;;;29.90;9.43;;;;;;;5.93;100.00;100915.84;5030603;28;20078;-83
2022/05/15 04:29:24;;;;;;;32.47;9.70;;;;;;;5.91;100.00;100912.47;5044289;28;20040;-79
2022/05/15 04:31:55;;;;;;;32.05;10.23;;;;;;;5.83;100.00;100913.19;5044938;28;20041;-82
2022/05/15 04:34:23;;;;;;;34.53;9.40;;;;;;;5.87;100.00;100921.75;5049216;28;20067;-79
2022/05/15 04:36:48;;;;;;;21.95;7.60;;;;;;;5.89;100.00;100917.13;5047943;28;20033;-78
2022/05/15 04:39:15;;;;;;;30.00;9.57;;;;;;;5.96;100.00;100914.78;5031568;28;20028;-82
2022/05/15 04:41:41;;;;;;;28.88;9.07;;;;;;;6.00;100.00;100908.97;5042377;28;20048;-80
2022/05/15 04:44:07;;;;;;;31.05;10.90;;;;;;;6.26;100.00;100913.72;5050688;28;20363;-79
2022/05/15 04:46:32;;;;;;;35.25;10.25;;;;;;;6.29;100.00;100898.25;5049932;28;20498;-78
2022/05/15 04:48:58;;;;;;;33.35;9.82;;;;;;;6.47;100.00;100911.69;5045787;28;20044;-78
2022/05/15 04:51:24;;;;;;;27.48;9.77;;;;;;;6.50;100.00;100910.56;5046749;28;20116;-78
2022/05/15 04:53:50;;;;;;;23.33;9.25;;;;;;;6.50;100.00;100906.06;5021801;28;20411;-78
2022/05/15 04:56:16;;;;;;;28.10;10.65;;;;;;;6.50;100.00;100903.38;5050835;28;20041;-77
2022/05/15 04:58:42;;;;;;;35.72;9.80;;;;;;;6.35;100.00;100902.16;5011340;28;20041;-79
2022/05/15 05:01:07;;;;;;;31.02;10.55;;;;;;;6.26;100.00;100897.69;5027872;28;20045;-79
2022/05/15 05:03:33;;;;;;;34.85;10.27;;;;;;;6.05;100.00;100881.88;5026138;28;20033;-80
2022/05/15 05:05:58;;;;;;;32.38;10.02;;;;;;;5.97;100.00;100871.91;5048461;28;20029;-78
2022/05/15 05:08:24;;;;;;;32.20;8.93;;;;;;;6.27;100.00;100899.38;5046115;28;20035;-80
2022/05/15 05:10:50;;;;;;;26.98;10.68;;;;;;;6.25;100.00;100867.50;5052835;28;20041;-80
2022/05/15 05:13:15;;;;;;;27.50;10.75;;;;;;;6.54;100.00;100896.78;5025271;28;20056;-80
2022/05/15 05:15:41;;;;;;;33.17;9.55;;;;;;;6.74;100.00;100896.69;5011776;28;20025;-80
2022/05/15 05:18:06;;;;;;;28.83;9.77;;;;;;;7.07;100.00;100894.44;5025260;28;20033;-83
2022/05/15 05:20:32;;;;;;;26.20;10.00;;;;;;;7.37;100.00;100891.41;5030223;28;20036;-79
2022/05/15 05:22:58;;;;;;;39.33;11.00;;;;;;;7.67;100.00;100898.22;5040736;28;20055;-79
2022/05/15 05:25:23;;;;;;;30.92;9.60;;;;;;;7.81;100.00;100891.47;5037480;28;20036;-80
2022/05/15 05:27:49;;;;;;;32.15;9.77;;;;;;;7.65;100.00;100894.84;5041744;28;20029;-79
2022/05/15 05:30:21;;;;;;;23.88;9.48;;;;;;;7.52;100.00;100877.50;5042608;28;20032;-82
2022/05/15 05:32:47;;;;;;;22.35;9.32;;;;;;;7.69;100.00;100887.34;5046034;28;20028;-79
2022/05/15 05:35:14;;;;;;;35.15;9.77;;;;;;;7.83;100.00;100893.97;5045407;28;20462;-80
2022/05/15 05:37:40;;;;;;;30.65;9.68;;;;;;;7.80;100.00;100860.34;5026025;28;20047;-79
2022/05/15 05:40:06;;;;;;;20.60;8.95;;;;;;;8.30;100.00;100883.78;5028699;28;20033;-79
2022/05/15 05:42:32;;;;;;;27.73;9.65;;;;;;;8.82;100.00;100879.41;5040093;28;20049;-81
2022/05/15 05:44:57;;;;;;;29.48;9.40;;;;;;;9.10;100.00;100872.78;5029191;28;20410;-79
2022/05/15 05:47:24;;;;;;;17.52;8.45;;;;;;;9.37;100.00;100878.91;5055426;28;20039;-79
2022/05/15 05:49:50;;;;;;;26.75;9.88;;;;;;;10.02;100.00;100873.53;5043050;28;20037;-78
2022/05/15 05:52:16;;;;;;;17.55;7.25;;;;;;;10.71;100.00;100884.69;5044949;28;20045;-80
2022/05/15 05:54:42;;;;;;;22.88;8.65;;;;;;;11.16;100.00;100861.59;5047756;28;20021;-79
2022/05/15 05:57:07;;;;;;;15.70;6.88;;;;;;;11.76;98.57;100872.66;5047539;28;20389;-84
2022/05/15 05:59:33;;;;;;;27.35;8.88;;;;;;;12.09;96.48;100874.06;5023845;28;20021;-79
2022/05/15 06:01:59;;;;;;;24.98;8.98;;;;;;;12.54;95.36;100876.78;5040581;28;20037;-79
2022/05/15 06:04:40;;;;;;;21.10;9.20;;;;;;;12.97;92.67;100869.72;5030039;28;20036;-81
2022/05/15 06:07:08;;;;;;;27.58;8.88;;;;;;;12.53;92.32;100858.94;5049037;28;20394;-82
2022/05/15 06:09:36;;;;;;;25.60;8.18;;;;;;;11.91;95.06;100868.19;5010154;28;20485;-78
2022/05/15 06:12:02;;;;;;;25.13;8.30;;;;;;;11.48;97.33;100867.78;5031461;28;20025;-79
2022/05/15 06:14:28;;;;;;;22.45;8.15;;;;;;;11.68;97.63;100884.31;5007880;28;20021;-78
2022/05/15 06:16:54;;;;;;;24.42;8.80;;;;;;;11.39;98.02;100864.31;5031728;28;20056;-79
2022/05/15 06:19:19;;;;;;;23.92;8.20;;;;;;;11.13;100.00;100877.28;5046932;28;20458;-79
2022/05/15 06:21:45;;;;;;;27.30;9.55;;;;;;;11.11;100.00;100877.44;5040088;28;20116;-79
2022/05/15 06:24:12;;;;;;;20.10;8.20;;;;;;;11.24;100.00;100874.16;5046415;28;20029;-81
2022/05/15 06:26:37;;;;;;;26.60;8.88;;;;;;;12.27;96.85;100875.56;5049130;28;20029;-81
2022/05/15 06:29:03;;;;;;;23.35;8.93;;;;;;;13.12;92.38;100872.34;5039361;28;20375;-82
2022/05/15 06:31:28;;;;;;;18.27;7.28;;;;;;;13.73;89.51;100881.97;5044837;28;20044;-79
2022/05/15 06:33:54;;;;;;;12.85;7.10;;;;;;;14.63;83.77;100877.69;5034969;28;20025;-82
2022/05/15 06:36:19;;;;;;;24.02;9.40;;;;;;;14.98;81.74;100864.09;5030685;28;20041;-81
2022/05/15 06:38:45;;;;;;;17.10;8.30;;;;;;;15.51;80.08;100878.66;5049877;28;20158;-79
2022/05/15 06:41:11;;;;;;;21.17;8.20;;;;;;;16.03;77.93;100879.78;5029786;28;20029;-79
2022/05/15 06:43:37;;;;;;;21.42;8.02;;;;;;;16.53;74.63;100878.47;5033050;28;20032;-80
2022/05/15 06:46:18;;;;;;;18.30;7.65;;;;;;;16.89;72.81;100864.41;5042689;28;20094;-80
2022/05/15 06:48:44;;;;;;;20.58;7.13;;;;;;;17.15;70.84;100866.19;5046356;28;20037;-82
2022/05/15 06:51:13;;;;;;;19.92;9.75;;;;;;;17.22;70.36;100869.69;5050095;28;20039;-80
2022/05/15 06:53:38;;;;;;;20.70;8.30;;;;;;;17.60;68.61;100866.13;5048881;28;20029;-81
2022/05/15 06:58:48;;;;;;;18.75;8.18;;;;;;;17.98;66.91;100857.09;5050395;28;20029;-79
2022/05/15 07:01:25;;;;;;;20.00;9.27;;;;;;;18.29;66.08;100867.06;5051539;28;20062;-78
2022/05/15 07:04:13;;;;;;;21.77;7.35;;;;;;;18.64;61.64;100869.22;5014763;28;20037;-80
2022/05/15 07:06:46;;;;;;;21.63;8.95;;;;;;;18.64;63.26;100870.03;5038925;28;20029;-82
2022/05/15 07:09:12;;;;;;;17.35;8.05;;;;;;;19.01;60.94;100863.78;5010945;28;20039;-82
2022/05/15 07:11:48;;;;;;;22.17;8.40;;;;;;;18.96;61.29;100847.28;5044443;28;20038;-81
2022/05/15 07:14:35;;;;;;;21.67;8.77;;;;;;;19.16;61.45;100822.47;5012200;28;20421;-82
2022/05/15 07:17:10;;;;;;;18.52;7.28;;;;;;;19.69;54.39;100819.84;5041417;28;20078;-78
2022/05/15 07:19:36;;;;;;;21.52;8.40;;;;;;;20.37;57.21;100856.63;5015186;28;20024;-78
2022/05/15 07:22:05;;;;;;;18.35;8.27;;;;;;;20.76;56.50;100867.09;5029368;28;20675;-80
2022/05/15 07:24:31;;;;;;;13.18;6.18;;;;;;;21.13;49.99;100853.91;5029170;28;20040;-79
2022/05/15 07:26:57;;;;;;;15.23;7.22;;;;;;;20.83;50.90;100851.41;5021107;28;21650;-79
2022/05/15 07:29:25;;;;;;;21.05;8.20;;;;;;;20.90;55.29;100851.25;5039367;28;20021;-77
2022/05/15 07:31:53;;;;;;;18.83;8.68;;;;;;;21.43;51.95;100853.66;5025467;28;20033;-76
2022/05/15 07:34:19;;;;;;;13.98;7.03;;;;;;;21.57;47.58;100847.91;5025073;28;20108;-77
2022/05/15 07:36:45;;;;;;;13.98;5.70;;;;;;;21.67;45.87;100848.94;5019882;28;20630;-78
2022/05/15 07:39:10;;;;;;;21.60;8.82;;;;;;;21.51;50.44;100845.09;5013454;28;20029;-82
2022/05/15 07:41:36;;;;;;;10.15;5.13;;;;;;;21.83;46.94;100835.47;5045862;28;20037;-78
2022/05/15 07:44:02;;;;;;;17.65;7.20;;;;;;;22.02;49.43;100831.44;5047091;28;20045;-79
2022/05/15 07:46:28;;;;;;;21.40;7.05;;;;;;;22.30;47.20;100846.91;5047536;28;20115;-78
2022/05/15 07:48:54;;;;;;;18.23;8.27;;;;;;;22.28;46.59;100840.88;5030044;28;20436;-79
2022/05/15 07:51:20;;;;;;;18.17;7.18;;;;;;;22.32;45.85;100832.97;5040386;28;20490;-79
2022/05/15 07:53:46;;;;;;;20.92;7.35;;;;;;;22.50;45.66;100837.34;5040937;28;20035;-81
2022/05/15 07:56:13;;;;;;;15.35;6.32;;;;;;;22.83;43.72;100831.72;5009510;28;20372;-78
2022/05/15 07:58:40;;;;;;;20.90;7.32;;;;;;;23.34;44.03;100833.41;5044771;28;20478;-79
2022/05/15 08:01:07;;;;;;;13.07;6.40;;;;;;;23.87;41.64;100829.81;5030409;28;20033;-80
2022/05/15 08:03:43;;;;;;;12.82;6.13;;;;;;;23.65;41.03;100813.41;5043279;28;20098;-80
2022/05/15 08:08:56;;;;;;;17.67;7.50;;;;;;;23.82;41.45;100809.75;5048267;28;20047;-77
2022/05/15 08:11:28;;;;;;;16.58;7.00;;;;;;;24.75;41.13;100817.44;5045195;28;20024;-79
2022/05/15 08:13:55;;;;;;;18.17;7.38;;;;;;;25.29;38.43;100811.56;5024061;28;20068;-81
2022/05/15 08:16:21;;;;;;;17.45;6.78;;;;;;;25.54;38.76;100813.53;5042697;28;20594;-80
2022/05/15 08:24:19;;;;;;;15.45;6.68;;;;;;;26.28;35.72;100811.28;5030649;28;20064;-78
2022/05/15 08:26:56;;;;;;;16.45;6.60;;;;;;;26.69;35.17;100811.16;5031901;28;20036;-80
2022/05/15 08:29:22;;;;;;;21.25;7.45;;;;;;;26.37;35.61;100811.53;5047024;28;20079;-79
2022/05/15 08:31:47;;;;;;;14.05;7.18;;;;;;;24.47;39.07;100811.25;5028935;28;20029;-79
2022/05/15 08:34:23;;;;;;;15.68;6.72;;;;;;;25.69;37.17;100809.13;5042293;28;20117;-77
2022/05/15 08:36:49;;;;;;;18.00;10.93;;;;;;;26.38;35.74;100805.72;5015146;28;20029;-80
2022/05/15 08:39:15;;;;;;;17.17;7.20;;;;;;;25.18;38.28;100813.47;5027469;28;20124;-78
2022/05/15 08:41:48;;;;;;;16.85;7.07;;;;;;;26.16;36.75;100817.09;5048445;28;20558;-79
2022/05/15 08:44:18;;;;;;;;;;;;;;;26.86;35.22;100816.31;5029124;28;20067;-78
2022/05/15 08:46:50;;;;;;;14.82;6.00;;;;;;;26.59;33.25;100809.28;5044206;28;19905;-76
2022/05/15 08:49:29;;;;;;;16.50;6.55;;;;;;;25.21;36.81;100801.91;5046163;28;20009;-75
2022/05/15 08:52:15;;;;;;;19.33;6.32;;;;;;;24.68;38.94;100792.13;5087951;28;20062;-77
2022/05/15 08:54:49;;;;;;;13.98;6.75;;;;;;;26.26;35.60;100791.44;5055577;28;20025;-78
2022/05/15 08:57:38;;;;;;;13.70;6.88;;;;;;;25.42;36.71;100780.75;5053656;28;20024;-77
2022/05/15 09:00:10;;;;;;;17.05;7.47;;;;;;;23.50;41.85;100758.41;5063614;28;20059;-76
2022/05/15 09:02:40;;;;;;;14.55;6.75;;;;;;;24.65;39.31;100776.16;5029987;28;20363;-78
2022/05/15 09:05:07;;;;;;;12.70;6.47;;;;;;;26.21;35.46;100775.75;5037082;28;20076;-83
2022/05/15 09:08:02;;;;;;;17.33;5.50;;;;;;;26.99;34.17;100777.06;5045843;28;20032;-80
2022/05/15 09:10:33;;;;;;;14.23;6.10;;;;;;;27.53;32.75;100775.34;5047679;28;20126;-79
2022/05/15 09:13:11;;;;;;;10.38;6.82;;;;;;;27.53;33.49;100775.34;5033567;28;20078;-80
2022/05/15 09:15:46;;;;;;;13.63;5.40;;;;;;;27.13;32.16;100774.53;5024612;28;20037;-79
2022/05/15 09:18:17;;;;;;;17.30;5.65;;;;;;;26.25;35.95;100778.75;5015515;28;20033;-80
2022/05/15 09:21:12;;;;;;;12.35;4.68;;;;;;;27.26;32.51;100773.09;5030890;28;20167;-80
2022/05/15 09:23:39;;;;;;;15.07;5.93;;;;;;;24.14;37.92;100773.97;5030386;28;20026;-79
2022/05/15 09:26:08;;;;;;;16.13;5.93;;;;;;;24.43;36.85;100768.09;5047383;28;20037;-79
2022/05/15 09:28:50;;;;;;;13.82;5.38;;;;;;;24.70;36.70;100763.25;5049758;28;20032;-79
2022/05/15 09:31:26;;;;;;;17.05;5.68;;;;;;;23.79;38.29;100753.44;5014069;28;20114;-80
2022/05/15 09:33:56;;;;;;;10.85;5.43;;;;;;;21.98;44.62;100764.53;5013950;28;20034;-79
2022/05/15 09:36:25;;;;;;;13.48;5.82;;;;;;;23.72;41.12;100757.50;5031442;28;20265;-80
2022/05/15 09:39:27;;;;;;;12.82;5.47;;;;;;;26.41;35.57;100752.81;5030052;28;20445;-80
2022/05/15 09:44:57;;;;;;;13.30;5.25;;;;;;;20.58;46.18;100743.22;5049572;28;20040;-81
2022/05/15 09:47:40;;;;;;;11.52;4.53;;;;;;;20.16;48.32;100737.13;5047952;28;20378;-79
2022/05/15 09:50:10;;;;;;;12.43;4.68;;;;;;;20.64;46.06;100736.81;5012088;28;20080;-80
2022/05/15 09:52:39;;;;;;;14.52;6.70;;;;;;;20.22;46.38;100717.06;5016642;28;20041;-79
2022/05/15 09:55:21;;;;;;;15.77;8.10;;;;;;;20.06;50.50;100734.16;5014942;28;20036;-79
2022/05/15 09:57:56;;;;;;;9.73;4.05;;;;;;;22.81;42.72;100718.78;5020467;28;20509;-79
2022/05/15 10:00:23;;;;;;;9.90;4.57;;;;;;;23.53;41.49;100724.13;5049178;28;20098;-82
2022/05/15 10:02:54;;;;;;;9.20;3.90;;;;;;;22.98;40.80;100726.94;5052973;28;20334;-81
2022/05/15 10:05:20;;;;;;;6.88;4.50;;;;;;;25.72;35.93;100732.31;5051733;28;20033;-80
2022/05/15 10:07:52;;;;;;;9.15;3.92;;;;;;;26.89;33.97;100721.97;5052448;28;20031;-80
2022/05/15 10:10:22;;;;;;;9.75;3.95;;;;;;;27.40;34.47;100716.09;5032785;28;20032;-80
2022/05/15 10:12:51;;;;;;;8.75;4.03;;;;;;;28.37;32.18;100720.59;5051107;28;20036;-80
2022/05/15 10:15:17;;;;;;;8.95;3.75;;;;;;;27.62;31.35;100708.13;5029014;28;20078;-80
2022/05/15 10:17:49;;;;;;;7.65;3.42;;;;;;;28.42;30.01;100703.94;5051267;28;20036;-82
2022/05/15 10:20:35;;;;;;;9.45;3.72;;;;;;;28.62;31.03;100704.81;5045752;28;20437;-81
2022/05/15 10:23:08;;;;;;;10.80;3.78;;;;;;;28.72;30.06;100693.59;5027674;28;20037;-80
2022/05/15 10:25:53;;;;;;;9.48;3.05;;;;;;;29.32;30.02;100692.94;5050145;28;20028;-80
2022/05/15 10:28:27;;;;;;;6.75;3.33;;;;;;;28.62;30.01;100680.72;5043257;28;20077;-80
2022/05/15 10:31:04;;;;;;;8.98;2.92;;;;;;;28.73;28.34;100698.00;5052937;28;20060;-79
2022/05/15 10:33:40;;;;;;;10.73;3.45;;;;;;;28.56;29.49;100690.22;5027718;28;20052;-81
2022/05/15 10:36:25;;;;;;;5.90;2.83;;;;;;;28.92;28.90;100687.78;5051233;28;20368;-81
2022/05/15 10:39:20;;;;;;;4.18;2.90;;;;;;;29.06;27.96;100660.16;5050628;28;20120;-79
2022/05/15 10:42:13;;;;;;;6.65;3.38;;;;;;;29.18;28.32;100681.81;5032790;28;20037;-81
2022/05/15 10:45:04;;;;;;;10.57;2.67;;;;;;;27.06;29.63;100663.63;5051966;28;20561;-80
2022/05/15 10:47:32;;;;;;;;;;;;;;;27.01;30.03;100667.22;5013034;28;20037;-80
2022/05/15 10:50:18;;;;;;;6.78;3.10;;;;;;;28.18;29.02;100661.66;5034320;28;19960;-80
2022/05/15 10:58:57;;;;;;;5.60;2.88;;;;;;;23.81;36.38;100643.34;5049105;28;20478;-81
2022/05/15 11:01:30;;;;;;;4.82;2.13;;;;;;;23.53;36.93;100645.34;5050108;28;20033;-81
2022/05/15 11:03:56;;;;;;;;;;;;;;;25.40;34.83;100637.09;5033021;28;20036;-79
2022/05/15 11:06:34;;;;;;;5.38;2.88;;;;;;;26.13;31.51;100627.50;5034405;28;19913;-80
2022/05/15 11:09:06;;;;;;;6.28;2.90;;;;;;;27.20;31.11;100609.41;5032291;28;20033;-82
2022/05/15 11:12:07;;;;;;;7.57;2.57;;;;;;;27.77;29.77;100631.75;5051083;28;20104;-83
2022/05/15 11:14:44;;;;;;;6.65;2.88;;;;;;;29.76;29.27;100638.97;5042883;28;20278;-79
2022/05/15 11:17:25;;;;;;;4.95;2.63;;;;;;;30.51;27.06;100620.19;5015008;28;20033;-80
2022/05/15 11:19:53;;;;;;;4.82;2.60;;;;;;;30.31;26.16;100622.31;5032680;28;20040;-81
2022/05/15 11:22:19;;;;;;;10.63;3.83;;;;;;;30.06;29.19;100622.84;5030280;28;20482;-79
2022/05/15 11:25:15;;;;;;;7.57;3.20;;;;;;;30.19;27.37;100620.06;5032705;28;20055;-80
2022/05/15 11:27:48;;;;;;;8.73;3.15;;;;;;;29.44;29.47;100596.34;5045515;28;20063;-83
2022/05/15 11:30:25;;;;;;;5.38;2.88;;;;;;;28.90;29.86;100606.16;5044466;28;20052;-82
2022/05/15 11:32:54;;;;;;;5.28;3.50;;;;;;;29.16;30.20;100606.53;5014985;28;20494;-82
2022/05/15 11:35:22;;;;;;;9.68;3.30;;;;;;;29.46;29.68;100612.66;5031871;28;20025;-79
2022/05/15 11:37:57;;;;;;;7.35;3.03;;;;;;;30.37;28.66;100598.88;5048766;28;20388;-80
2022/05/15 11:40:35;;;;;;;8.05;3.45;;;;;;;31.05;28.54;100601.69;5050233;28;20479;-79
2022/05/15 11:43:25;;;;;;;10.95;3.33;;;;;;;31.77;27.65;100593.03;5033173;28;20102;-79
2022/05/15 11:46:12;;;;;;;5.93;3.17;;;;;;;32.41;24.54;100591.69;5050685;28;20057;-79
2022/05/15 11:48:37;;;;;;;10.63;3.38;;;;;;;29.36;29.19;100588.75;5043539;28;20041;-80
2022/05/15 11:51:04;;;;;;;10.85;3.22;;;;;;;27.53;32.46;100584.81;5007932;28;1239044;-82
2022/05/15 11:53:48;;;;;;;8.75;3.55;;;;;;;26.25;34.53;100585.81;5049542;28;20032;-82